sensor_id;sensor_type;location;lat;lon;timestamp;pressure;altitude;pressure_sealevel;temperature;humidity
53932;BME280;39844;52.496;13.482;2023-12-20T00:02:04;100747.38;;;6.96;100.00
53932;BME280;39844;52.496;13.482;2023-12-20T00:04:29;100738.66;;;6.95;100.00
53932;BME280;39844;52.496;13.482;2023-12-20T00:06:54;100740.41;;;6.96;100.00
53932;BME280;39844;52.496;13.482;2023-12-20T00:09:20;100739.53;;;6.96;100.00
53932;BME280;39844;52.496;13.482;2023-12-20T00:11:45;100739.53;;;6.96;100.00
53932;BME280;39844;52.496;13.482;2023-12-20T00:14:10;100746.50;;;6.95;100.00
53932;BME280;39844;52.496;13.482;2023-12-20T00:16:36;100741.28;;;6.95;100.00
53932;BME280;39844;52.496;13.482;2023-12-20T00:19:01;100734.31;;;6.96;100.00
53932;BME280;39844;52.496;13.482;2023-12-20T00:21:26;100727.34;;;6.95;100.00
53932;BME280;39844;52.496;13.482;2023-12-20T00:23:51;100724.72;;;6.95;100.00
53932;BME280;39844;52.496;13.482;2023-12-20T00:26:17;100725.63;;;6.95;100.00
53932;BME280;39844;52.496;13.482;2023-12-20T00:28:42;100719.56;;;6.96;100.00
53932;BME280;39844;52.496;13.482;2023-12-20T00:31:07;100711.72;;;6.96;100.00
53932;BME280;39844;52.496;13.482;2023-12-20T00:33:32;100711.72;;;6.96;100.00
53932;BME280;39844;52.496;13.482;2023-12-20T00:35:58;100709.13;;;6.96;100.00
53932;BME280;39844;52.496;13.482;2023-12-20T00:38:23;100715.19;;;6.97;100.00
53932;BME280;39844;52.496;13.482;2023-12-20T00:40:48;100708.22;;;6.96;100.00
53932;BME280;39844;52.496;13.482;2023-12-20T00:43:14;100713.44;;;6.97;100.00
53932;BME280;39844;52.496;13.482;2023-12-20T00:45:39;100711.72;;;6.98;100.00
53932;BME280;39844;52.496;13.482;2023-12-20T00:48:04;100712.56;;;6.97;100.00
53932;BME280;39844;52.496;13.482;2023-12-20T00:50:30;100710.84;;;6.97;100.00
53932;BME280;39844;52.496;13.482;2023-12-20T00:52:55;100707.38;;;6.98;100.00
53932;BME280;39844;52.496;13.482;2023-12-20T00:55:20;100704.75;;;6.97;100.00
53932;BME280;39844;52.496;13.482;2023-12-20T00:57:46;100696.91;;;6.97;100.00
53932;BME280;39844;52.496;13.482;2023-12-20T01:00:11;100702.13;;;6.97;100.00
53932;BME280;39844;52.496;13.482;2023-12-20T01:02:37;100714.34;;;6.98;100.00
53932;BME280;39844;52.496;13.482;2023-12-20T01:05:02;100717.81;;;6.98;100.00
53932;BME280;39844;52.496;13.482;2023-12-20T01:07:27;100719.56;;;6.98;100.00
53932;BME280;39844;52.496;13.482;2023-12-20T01:09:53;100718.72;;;6.99;100.00
53932;BME280;39844;52.496;13.482;2023-12-20T01:12:18;100715.22;;;7.00;100.00
53932;BME280;39844;52.496;13.482;2023-12-20T01:14:43;100716.09;;;6.99;100.00
53932;BME280;39844;52.496;13.482;2023-12-20T01:17:08;100710.88;;;6.99;100.00
53932;BME280;39844;52.496;13.482;2023-12-20T01:19:34;100709.97;;;6.97;100.00
53932;BME280;39844;52.496;13.482;2023-12-20T01:21:59;100717.81;;;6.98;100.00
53932;BME280;39844;52.496;13.482;2023-12-20T01:24:24;100712.59;;;6.98;100.00
53932;BME280;39844;52.496;13.482;2023-12-20T01:26:50;100710.88;;;6.99;100.00
53932;BME280;39844;52.496;13.482;2023-12-20T01:29:15;100707.38;;;7.00;100.00
53932;BME280;39844;52.496;13.482;2023-12-20T01:31:40;100703.06;;;7.00;100.00
53932;BME280;39844;52.496;13.482;2023-12-20T01:34:06;100707.38;;;6.98;100.00
53932;BME280;39844;52.496;13.482;2023-12-20T01:36:31;100706.50;;;6.99;100.00
53932;BME280;39844;52.496;13.482;2023-12-20T01:38:57;100701.28;;;6.99;100.00
53932;BME280;39844;52.496;13.482;2023-12-20T01:41:22;100704.78;;;7.00;100.00
53932;BME280;39844;52.496;13.482;2023-12-20T01:43:47;100707.38;;;7.00;100.00
53932;BME280;39844;52.496;13.482;2023-12-20T01:46:12;100696.06;;;6.99;100.00
53932;BME280;39844;52.496;13.482;2023-12-20T01:48:38;100696.94;;;7.00;100.00
53932;BME280;39844;52.496;13.482;2023-12-20T01:51:04;100708.28;;;6.99;100.00
53932;BME280;39844;52.496;13.482;2023-12-20T01:53:29;100699.56;;;7.00;100.00
53932;BME280;39844;52.496;13.482;2023-12-20T01:55:56;100696.94;;;7.00;100.00
53932;BME280;39844;52.496;13.482;2023-12-20T01:58:23;100697.84;;;6.99;100.00
53932;BME280;39844;52.496;13.482;2023-12-20T02:00:50;100708.28;;;6.99;100.00
53932;BME280;39844;52.496;13.482;2023-12-20T02:03:16;100703.06;;;6.99;100.00
53932;BME280;39844;52.496;13.482;2023-12-20T02:05:42;100696.94;;;6.98;100.00
53932;BME280;39844;52.496;13.482;2023-12-20T02:08:07;100693.47;;;6.99;100.00
53932;BME280;39844;52.496;13.482;2023-12-20T02:10:32;100691.72;;;7.00;100.00
53932;BME280;39844;52.496;13.482;2023-12-20T02:12:58;100686.50;;;7.00;100.00
53932;BME280;39844;52.496;13.482;2023-12-20T02:15:23;100683.06;;;7.01;100.00
53932;BME280;39844;52.496;13.482;2023-12-20T02:17:49;100686.53;;;7.02;100.00
53932;BME280;39844;52.496;13.482;2023-12-20T02:20:15;100694.38;;;7.02;100.00
53932;BME280;39844;52.496;13.482;2023-12-20T02:22:40;100695.22;;;7.02;100.00
53932;BME280;39844;52.496;13.482;2023-12-20T02:25:06;100695.22;;;7.02;100.00
53932;BME280;39844;52.496;13.482;2023-12-20T02:27:31;100690.88;;;7.01;100.00
53932;BME280;39844;52.496;13.482;2023-12-20T02:29:57;100683.88;;;6.97;100.00
53932;BME280;39844;52.496;13.482;2023-12-20T02:32:23;100675.16;;;6.93;100.00
53932;BME280;39844;52.496;13.482;2023-12-20T02:34:49;100671.66;;;6.93;100.00
53932;BME280;39844;52.496;13.482;2023-12-20T02:37:14;100680.34;;;6.90;100.00
53932;BME280;39844;52.496;13.482;2023-12-20T02:39:40;100688.16;;;6.92;100.00
53932;BME280;39844;52.496;13.482;2023-12-20T02:42:07;100677.75;;;6.93;100.00
53932;BME280;39844;52.496;13.482;2023-12-20T02:44:32;100668.22;;;6.94;100.00
53932;BME280;39844;52.496;13.482;2023-12-20T02:46:58;100672.56;;;6.95;100.00
53932;BME280;39844;52.496;13.482;2023-12-20T02:49:23;100669.09;;;6.96;100.00
53932;BME280;39844;52.496;13.482;2023-12-20T02:51:48;100671.69;;;6.96;100.00
53932;BME280;39844;52.496;13.482;2023-12-20T02:54:14;100681.28;;;6.98;100.00
53932;BME280;39844;52.496;13.482;2023-12-20T02:56:39;100682.19;;;7.00;100.00
53932;BME280;39844;52.496;13.482;2023-12-20T02:59:04;100685.66;;;7.03;100.00
53932;BME280;39844;52.496;13.482;2023-12-20T03:01:30;100681.34;;;7.03;100.00
53932;BME280;39844;52.496;13.482;2023-12-20T03:03:55;100683.09;;;7.04;100.00
53932;BME280;39844;52.496;13.482;2023-12-20T03:06:20;100681.38;;;7.06;100.00
53932;BME280;39844;52.496;13.482;2023-12-20T03:08:45;100678.72;;;7.05;100.00
53932;BME280;39844;52.496;13.482;2023-12-20T03:11:11;100683.09;;;7.04;100.00
53932;BME280;39844;52.496;13.482;2023-12-20T03:13:36;100690.03;;;7.05;100.00
53932;BME280;39844;52.496;13.482;2023-12-20T03:16:08;100696.16;;;7.04;100.00
53932;BME280;39844;52.496;13.482;2023-12-20T03:18:33;100686.56;;;7.03;100.00
53932;BME280;39844;52.496;13.482;2023-12-20T03:20:58;100690.03;;;7.05;100.00
53932;BME280;39844;52.496;13.482;2023-12-20T03:23:24;100686.59;;;7.06;100.00
53932;BME280;39844;52.496;13.482;2023-12-20T03:25:49;100702.25;;;7.06;100.00
53932;BME280;39844;52.496;13.482;2023-12-20T03:28:15;100697.00;;;7.05;100.00
53932;BME280;39844;52.496;13.482;2023-12-20T03:30:40;100683.09;;;7.07;100.00
53932;BME280;39844;52.496;13.482;2023-12-20T03:33:05;100687.44;;;7.05;100.00
53932;BME280;39844;52.496;13.482;2023-12-20T03:35:30;100690.03;;;7.05;100.00
53932;BME280;39844;52.496;13.482;2023-12-20T03:37:56;100691.78;;;7.03;100.00
53932;BME280;39844;52.496;13.482;2023-12-20T03:40:21;100682.22;;;7.04;100.00
53932;BME280;39844;52.496;13.482;2023-12-20T03:42:46;100705.69;;;7.05;100.00
53932;BME280;39844;52.496;13.482;2023-12-20T03:45:12;100703.09;;;7.05;100.00
53932;BME280;39844;52.496;13.482;2023-12-20T03:47:37;100693.50;;;7.03;100.00
53932;BME280;39844;52.496;13.482;2023-12-20T03:50:02;100692.63;;;7.02;100.00
53932;BME280;39844;52.496;13.482;2023-12-20T03:52:28;100684.78;;;7.02;100.00
53932;BME280;39844;52.496;13.482;2023-12-20T03:54:53;100688.28;;;7.01;100.00
53932;BME280;39844;52.496;13.482;2023-12-20T03:57:18;100685.63;;;6.99;100.00
53932;BME280;39844;52.496;13.482;2023-12-20T03:59:44;100690.00;;;6.99;100.00
53932;BME280;39844;52.496;13.482;2023-12-20T04:02:09;100683.91;;;7.00;100.00
53932;BME280;39844;52.496;13.482;2023-12-20T04:04:34;100668.22;;;6.97;100.00
53932;BME280;39844;52.496;13.482;2023-12-20T04:06:59;100672.56;;;6.95;100.00
53932;BME280;39844;52.496;13.482;2023-12-20T04:09:25;100672.59;;;6.96;100.00
53932;BME280;39844;52.496;13.482;2023-12-20T04:11:50;100672.56;;;6.95;100.00
53932;BME280;39844;52.496;13.482;2023-12-20T04:14:15;100672.56;;;6.95;100.00
53932;BME280;39844;52.496;13.482;2023-12-20T04:16:41;100665.59;;;6.95;100.00
53932;BME280;39844;52.496;13.482;2023-12-20T04:19:06;100666.44;;;6.93;100.00
53932;BME280;39844;52.496;13.482;2023-12-20T04:21:31;100664.69;;;6.92;100.00
53932;BME280;39844;52.496;13.482;2023-12-20T04:23:57;100665.56;;;6.91;100.00
53932;BME280;39844;52.496;13.482;2023-12-20T04:26:22;100661.19;;;6.90;100.00
53932;BME280;39844;52.496;13.482;2023-12-20T04:28:47;100665.53;;;6.88;100.00
53932;BME280;39844;52.496;13.482;2023-12-20T04:31:12;100663.75;;;6.87;100.00
53932;BME280;39844;52.496;13.482;2023-12-20T04:33:38;100654.22;;;6.86;100.00
53932;BME280;39844;52.496;13.482;2023-12-20T04:36:03;100658.50;;;6.84;100.00
53932;BME280;39844;52.496;13.482;2023-12-20T04:38:29;100649.81;;;6.82;100.00
53932;BME280;39844;52.496;13.482;2023-12-20T04:40:54;100661.97;;;6.78;100.00
53932;BME280;39844;52.496;13.482;2023-12-20T04:43:19;100654.97;;;6.76;100.00
53932;BME280;39844;52.496;13.482;2023-12-20T04:45:46;100661.03;;;6.73;100.00
53932;BME280;39844;52.496;13.482;2023-12-20T04:48:12;100660.97;;;6.69;100.00
53932;BME280;39844;52.496;13.482;2023-12-20T04:50:37;100663.56;;;6.67;100.00
53932;BME280;39844;52.496;13.482;2023-12-20T04:53:02;100667.88;;;6.64;100.00
53932;BME280;39844;52.496;13.482;2023-12-20T04:55:28;100660.03;;;6.61;100.00
53932;BME280;39844;52.496;13.482;2023-12-20T04:57:53;100653.91;;;6.59;100.00
53932;BME280;39844;52.496;13.482;2023-12-20T05:00:18;100656.50;;;6.56;100.00
53932;BME280;39844;52.496;13.482;2023-12-20T05:02:44;100654.75;;;6.55;100.00
53932;BME280;39844;52.496;13.482;2023-12-20T05:05:09;100659.03;;;6.51;100.00
53932;BME280;39844;52.496;13.482;2023-12-20T05:07:34;100663.41;;;6.51;100.00
53932;BME280;39844;52.496;13.482;2023-12-20T05:10:00;100675.56;;;6.52;100.00
53932;BME280;39844;52.496;13.482;2023-12-20T05:12:25;100671.22;;;6.51;100.00
53932;BME280;39844;52.496;13.482;2023-12-20T05:14:51;100676.44;;;6.52;100.00
53932;BME280;39844;52.496;13.482;2023-12-20T05:17:19;100672.94;;;6.52;100.00
53932;BME280;39844;52.496;13.482;2023-12-20T05:19:44;100666.00;;;6.52;100.00
53932;BME280;39844;52.496;13.482;2023-12-20T05:22:10;100672.09;;;6.53;100.00
53932;BME280;39844;52.496;13.482;2023-12-20T05:24:35;100673.81;;;6.51;100.00
53932;BME280;39844;52.496;13.482;2023-12-20T05:27:00;100669.44;;;6.48;100.00
53932;BME280;39844;52.496;13.482;2023-12-20T05:29:25;100670.28;;;6.46;100.00
53932;BME280;39844;52.496;13.482;2023-12-20T05:31:51;100670.25;;;6.43;100.00
53932;BME280;39844;52.496;13.482;2023-12-20T05:34:16;100663.22;;;6.38;100.00
53932;BME280;39844;52.496;13.482;2023-12-20T05:36:41;100670.16;;;6.35;100.00
53932;BME280;39844;52.496;13.482;2023-12-20T05:39:07;100671.00;;;6.32;100.00
53932;BME280;39844;52.496;13.482;2023-12-20T05:41:32;100667.47;;;6.29;100.00
53932;BME280;39844;52.496;13.482;2023-12-20T05:43:57;100668.25;;;6.23;100.00
53932;BME280;39844;52.496;13.482;2023-12-20T05:46:22;100666.50;;;6.19;100.00
53932;BME280;39844;52.496;13.482;2023-12-20T05:48:48;100660.34;;;6.14;100.00
53932;BME280;39844;52.496;13.482;2023-12-20T05:51:13;100657.69;;;6.11;100.00
53932;BME280;39844;52.496;13.482;2023-12-20T05:53:38;100655.03;;;6.07;100.00
53932;BME280;39844;52.496;13.482;2023-12-20T05:56:04;100660.19;;;6.02;100.00
53932;BME280;39844;52.496;13.482;2023-12-20T05:58:29;100652.34;;;6.01;100.00
53932;BME280;39844;52.496;13.482;2023-12-20T06:00:55;100659.25;;;5.97;100.00
53932;BME280;39844;52.496;13.482;2023-12-20T06:03:20;100660.94;;;5.94;100.00
53932;BME280;39844;52.496;13.482;2023-12-20T06:05:45;100666.13;;;5.92;100.00
53932;BME280;39844;52.496;13.482;2023-12-20T06:08:10;100661.75;;;5.90;100.00
53932;BME280;39844;52.496;13.482;2023-12-20T06:10:36;100659.13;;;5.88;100.00
53932;BME280;39844;52.496;13.482;2023-12-20T06:13:03;100650.41;;;5.86;100.00
53932;BME280;39844;52.496;13.482;2023-12-20T06:15:29;100636.47;;;5.84;100.00
53932;BME280;39844;52.496;13.482;2023-12-20T06:17:54;100644.25;;;5.83;100.00
53932;BME280;39844;52.496;13.482;2023-12-20T06:20:19;100652.94;;;5.82;100.00
53932;BME280;39844;52.496;13.482;2023-12-20T06:22:45;100645.94;;;5.79;100.00
53932;BME280;39844;52.496;13.482;2023-12-20T06:25:10;100641.56;;;5.78;100.00
53932;BME280;39844;52.496;13.482;2023-12-20T06:27:35;100645.88;;;5.74;100.00
53932;BME280;39844;52.496;13.482;2023-12-20T06:30:00;100636.31;;;5.73;100.00
53932;BME280;39844;52.496;13.482;2023-12-20T06:32:26;100637.97;;;5.70;100.00
53932;BME280;39844;52.496;13.482;2023-12-20T06:34:51;100645.78;;;5.68;100.00
53932;BME280;39844;52.496;13.482;2023-12-20T06:37:16;100661.38;;;5.67;100.00
53932;BME280;39844;52.496;13.482;2023-12-20T06:39:42;100652.72;;;5.66;100.00
53932;BME280;39844;52.496;13.482;2023-12-20T06:42:07;100654.44;;;5.66;100.00
53932;BME280;39844;52.496;13.482;2023-12-20T06:44:32;100650.09;;;5.66;100.00
53932;BME280;39844;52.496;13.482;2023-12-20T06:46:57;100663.13;;;5.66;100.00
53932;BME280;39844;52.496;13.482;2023-12-20T06:49:23;100657.03;;;5.66;100.00
53932;BME280;39844;52.496;13.482;2023-12-20T06:51:48;100658.75;;;5.67;100.00
53932;BME280;39844;52.496;13.482;2023-12-20T06:54:14;100650.94;;;5.65;100.00
53932;BME280;39844;52.496;13.482;2023-12-20T06:56:39;100642.25;;;5.65;100.00
53932;BME280;39844;52.496;13.482;2023-12-20T06:59:04;100644.84;;;5.65;100.00
53932;BME280;39844;52.496;13.482;2023-12-20T07:01:30;100649.19;;;5.64;100.00
53932;BME280;39844;52.496;13.482;2023-12-20T07:03:55;100634.44;;;5.65;100.00
53932;BME280;39844;52.496;13.482;2023-12-20T07:06:20;100654.44;;;5.66;100.00
53932;BME280;39844;52.496;13.482;2023-12-20T07:08:46;100647.50;;;5.66;100.00
53932;BME280;39844;52.496;13.482;2023-12-20T07:11:11;100640.53;;;5.67;100.00
53932;BME280;39844;52.496;13.482;2023-12-20T07:13:37;100641.41;;;5.66;100.00
53932;BME280;39844;52.496;13.482;2023-12-20T07:16:02;100646.63;;;5.66;100.00
53932;BME280;39844;52.496;13.482;2023-12-20T07:18:28;100640.53;;;5.67;100.00
53932;BME280;39844;52.496;13.482;2023-12-20T07:20:53;100637.94;;;5.67;100.00
53932;BME280;39844;52.496;13.482;2023-12-20T07:23:18;100640.59;;;5.68;100.00
53932;BME280;39844;52.496;13.482;2023-12-20T07:25:43;100637.97;;;5.68;100.00
53932;BME280;39844;52.496;13.482;2023-12-20T07:28:09;100650.16;;;5.71;100.00
53932;BME280;39844;52.496;13.482;2023-12-20T07:30:34;100638.88;;;5.72;100.00
53932;BME280;39844;52.496;13.482;2023-12-20T07:32:59;100645.00;;;5.74;100.00
53932;BME280;39844;52.496;13.482;2023-12-20T07:35:25;100642.41;;;5.75;100.00
53932;BME280;39844;52.496;13.482;2023-12-20T07:37:50;100638.09;;;5.78;100.00
53932;BME280;39844;52.496;13.482;2023-12-20T07:40:15;100635.47;;;5.78;100.00
53932;BME280;39844;52.496;13.482;2023-12-20T07:42:40;100645.94;;;5.79;100.00
53932;BME280;39844;52.496;13.482;2023-12-20T07:45:06;100630.31;;;5.81;100.00
53932;BME280;39844;52.496;13.482;2023-12-20T07:47:31;100627.72;;;5.81;100.00
53932;BME280;39844;52.496;13.482;2023-12-20T07:49:57;100629.44;;;5.80;100.00
53932;BME280;39844;52.496;13.482;2023-12-20T07:52:23;100627.75;;;5.82;100.00
53932;BME280;39844;52.496;13.482;2023-12-20T07:54:48;100622.56;;;5.82;100.00
53932;BME280;39844;52.496;13.482;2023-12-20T07:57:13;100625.16;;;5.84;100.00
53932;BME280;39844;52.496;13.482;2023-12-20T07:59:39;100628.66;;;5.84;100.00
53932;BME280;39844;52.496;13.482;2023-12-20T08:02:04;100624.38;;;5.86;100.00
53932;BME280;39844;52.496;13.482;2023-12-20T08:04:29;100641.75;;;5.87;100.00
53932;BME280;39844;52.496;13.482;2023-12-20T08:06:55;100622.66;;;5.88;100.00
53932;BME280;39844;52.496;13.482;2023-12-20T08:09:20;100624.38;;;5.88;100.00
53932;BME280;39844;52.496;13.482;2023-12-20T08:11:46;100624.41;;;5.89;100.00
53932;BME280;39844;52.496;13.482;2023-12-20T08:14:11;100631.34;;;5.90;100.00
53932;BME280;39844;52.496;13.482;2023-12-20T08:16:37;100634.88;;;5.92;100.00
53932;BME280;39844;52.496;13.482;2023-12-20T08:19:02;100633.16;;;5.94;100.00
53932;BME280;39844;52.496;13.482;2023-12-20T08:21:27;100625.38;;;5.97;100.00
53932;BME280;39844;52.496;13.482;2023-12-20T08:23:53;100629.72;;;5.97;100.00
53932;BME280;39844;52.496;13.482;2023-12-20T08:26:19;100620.19;;;5.97;100.00
53932;BME280;39844;52.496;13.482;2023-12-20T08:28:44;100621.91;;;5.98;100.00
53932;BME280;39844;52.496;13.482;2023-12-20T08:31:14;100634.97;;;6.00;100.00
53932;BME280;39844;52.496;13.482;2023-12-20T08:33:39;100624.56;;;6.01;100.00
53932;BME280;39844;52.496;13.482;2023-12-20T08:36:05;100624.56;;;6.01;100.00
53932;BME280;39844;52.496;13.482;2023-12-20T08:38:30;100619.34;;;6.01;100.00
53932;BME280;39844;52.496;13.482;2023-12-20T08:40:56;100607.22;;;6.02;100.00
53932;BME280;39844;52.496;13.482;2023-12-20T08:43:21;100617.63;;;6.03;100.00
53932;BME280;39844;52.496;13.482;2023-12-20T08:45:46;100613.31;;;6.05;100.00
53932;BME280;39844;52.496;13.482;2023-12-20T08:48:11;100610.75;;;6.08;100.00
53932;BME280;39844;52.496;13.482;2023-12-20T08:50:37;100602.94;;;6.08;100.00
53932;BME280;39844;52.496;13.482;2023-12-20T08:53:02;100603.84;;;6.12;100.00
53932;BME280;39844;52.496;13.482;2023-12-20T08:55:27;100604.75;;;6.15;100.00
53932;BME280;39844;52.496;13.482;2023-12-20T08:57:53;100595.25;;;6.20;100.00
53932;BME280;39844;52.496;13.482;2023-12-20T09:00:18;100597.00;;;6.21;100.00
53932;BME280;39844;52.496;13.482;2023-12-20T09:02:44;100596.13;;;6.19;100.00
53932;BME280;39844;52.496;13.482;2023-12-20T09:05:09;100593.53;;;6.21;100.00
53932;BME280;39844;52.496;13.482;2023-12-20T09:07:34;100600.47;;;6.20;100.00
53932;BME280;39844;52.496;13.482;2023-12-20T09:10:00;100606.56;;;6.21;100.00
53932;BME280;39844;52.496;13.482;2023-12-20T09:12:25;100600.50;;;6.23;100.00
53932;BME280;39844;52.496;13.482;2023-12-20T09:14:51;100595.34;;;6.28;100.00
53932;BME280;39844;52.496;13.482;2023-12-20T09:17:17;100595.41;;;6.32;100.00
53932;BME280;39844;52.496;13.482;2023-12-20T09:19:43;100603.28;;;6.38;100.00
53932;BME280;39844;52.496;13.482;2023-12-20T09:22:08;100600.75;;;6.43;100.00
53932;BME280;39844;52.496;13.482;2023-12-20T09:24:34;100597.31;;;6.46;100.00
53932;BME280;39844;52.496;13.482;2023-12-20T09:26:59;100584.25;;;6.46;100.00
53932;BME280;39844;52.496;13.482;2023-12-20T09:29:24;100590.38;;;6.48;100.00
53932;BME280;39844;52.496;13.482;2023-12-20T09:31:50;100579.94;;;6.48;99.58
53932;BME280;39844;52.496;13.482;2023-12-20T09:34:16;100586.03;;;6.48;99.62
53932;BME280;39844;52.496;13.482;2023-12-20T09:36:41;100578.16;;;6.47;99.32
53932;BME280;39844;52.496;13.482;2023-12-20T09:39:06;100586.00;;;6.47;100.00
53932;BME280;39844;52.496;13.482;2023-12-20T09:41:37;100580.78;;;6.47;100.00
53932;BME280;39844;52.496;13.482;2023-12-20T09:44:05;100581.66;;;6.46;100.00
53932;BME280;39844;52.496;13.482;2023-12-20T09:46:34;100575.56;;;6.47;100.00
53932;BME280;39844;52.496;13.482;2023-12-20T09:49:02;100592.09;;;6.47;100.00
53932;BME280;39844;52.496;13.482;2023-12-20T09:51:31;100583.38;;;6.47;100.00
53932;BME280;39844;52.496;13.482;2023-12-20T09:53:57;100586.03;;;6.48;100.00
53932;BME280;39844;52.496;13.482;2023-12-20T09:56:24;100575.59;;;6.48;99.69
53932;BME280;39844;52.496;13.482;2023-12-20T09:58:50;100572.13;;;6.48;99.46
53932;BME280;39844;52.496;13.482;2023-12-20T10:01:16;100574.72;;;6.48;99.59
53932;BME280;39844;52.496;13.482;2023-12-20T10:03:41;100573.00;;;6.48;99.45
53932;BME280;39844;52.496;13.482;2023-12-20T10:06:07;100565.16;;;6.48;99.09
53932;BME280;39844;52.496;13.482;2023-12-20T10:08:32;100563.41;;;6.49;99.48
53932;BME280;39844;52.496;13.482;2023-12-20T10:11:00;100553.00;;;6.50;99.06
53932;BME280;39844;52.496;13.482;2023-12-20T10:13:25;100546.06;;;6.52;99.53
53932;BME280;39844;52.496;13.482;2023-12-20T10:15:51;100536.53;;;6.53;98.70
53932;BME280;39844;52.496;13.482;2023-12-20T10:18:16;100540.00;;;6.55;98.62
53932;BME280;39844;52.496;13.482;2023-12-20T10:20:41;100543.50;;;6.57;98.35
53932;BME280;39844;52.496;13.482;2023-12-20T10:23:07;100530.50;;;6.58;97.48
53932;BME280;39844;52.496;13.482;2023-12-20T10:25:32;100527.91;;;6.60;97.69
53932;BME280;39844;52.496;13.482;2023-12-20T10:28:14;100514.84;;;6.61;97.53
53932;BME280;39844;52.496;13.482;2023-12-20T10:30:41;100531.38;;;6.62;96.41
53932;BME280;39844;52.496;13.482;2023-12-20T10:33:07;100520.09;;;6.63;96.66
53932;BME280;39844;52.496;13.482;2023-12-20T10:35:33;100509.66;;;6.64;95.98
53932;BME280;39844;52.496;13.482;2023-12-20T10:38:05;100508.81;;;6.67;95.05
53932;BME280;39844;52.496;13.482;2023-12-20T10:40:31;100507.97;;;6.69;94.44
53932;BME280;39844;52.496;13.482;2023-12-20T10:42:57;100505.41;;;6.72;93.39
53932;BME280;39844;52.496;13.482;2023-12-20T10:45:23;100495.84;;;6.73;93.75
53932;BME280;39844;52.496;13.482;2023-12-20T10:47:49;100491.50;;;6.76;93.38
53932;BME280;39844;52.496;13.482;2023-12-20T10:50:15;100484.59;;;6.80;93.47
53932;BME280;39844;52.496;13.482;2023-12-20T10:52:42;100475.91;;;6.84;92.97
53932;BME280;39844;52.496;13.482;2023-12-20T10:55:08;100474.22;;;6.86;93.10
53932;BME280;39844;52.496;13.482;2023-12-20T10:57:36;100470.72;;;6.87;93.02
53932;BME280;39844;52.496;13.482;2023-12-20T11:00:02;100480.31;;;6.88;92.89
53932;BME280;39844;52.496;13.482;2023-12-20T11:02:31;100462.03;;;6.88;92.15
53932;BME280;39844;52.496;13.482;2023-12-20T11:05:06;100468.13;;;6.88;92.49
53932;BME280;39844;52.496;13.482;2023-12-20T11:07:55;100461.19;;;6.89;92.46
53932;BME280;39844;52.496;13.482;2023-12-20T11:10:29;100453.38;;;6.89;92.19
53932;BME280;39844;52.496;13.482;2023-12-20T11:13:06;100449.88;;;6.90;92.66
53932;BME280;39844;52.496;13.482;2023-12-20T11:15:33;100455.97;;;6.90;92.54
53932;BME280;39844;52.496;13.482;2023-12-20T11:17:59;100443.81;;;6.92;92.72
53932;BME280;39844;52.496;13.482;2023-12-20T11:20:35;100442.94;;;6.92;93.08
53932;BME280;39844;52.496;13.482;2023-12-20T11:23:01;100437.72;;;6.92;94.28
53932;BME280;39844;52.496;13.482;2023-12-20T11:25:26;100428.09;;;6.86;94.66
53932;BME280;39844;52.496;13.482;2023-12-20T11:28:09;100419.41;;;6.84;95.10
53932;BME280;39844;52.496;13.482;2023-12-20T11:30:54;100418.53;;;6.84;95.53
53932;BME280;39844;52.496;13.482;2023-12-20T11:33:26;100413.31;;;6.81;96.33
53932;BME280;39844;52.496;13.482;2023-12-20T11:35:58;100408.09;;;6.81;97.21
53932;BME280;39844;52.496;13.482;2023-12-20T11:38:23;100408.06;;;6.79;97.41
53932;BME280;39844;52.496;13.482;2023-12-20T11:40:49;100401.97;;;6.77;97.91
53932;BME280;39844;52.496;13.482;2023-12-20T11:43:31;100391.53;;;6.73;98.00
53932;BME280;39844;52.496;13.482;2023-12-20T11:46:02;100375.00;;;6.71;97.93
53932;BME280;39844;52.496;13.482;2023-12-20T11:48:28;100374.13;;;6.70;98.21
53932;BME280;39844;52.496;13.482;2023-12-20T11:50:53;100367.16;;;6.72;97.79
53932;BME280;39844;52.496;13.482;2023-12-20T11:53:18;100375.88;;;6.73;97.54
53932;BME280;39844;52.496;13.482;2023-12-20T11:55:48;100369.78;;;6.74;96.71
53932;BME280;39844;52.496;13.482;2023-12-20T11:58:13;100373.28;;;6.76;97.13
53932;BME280;39844;52.496;13.482;2023-12-20T12:00:38;100368.06;;;6.76;97.62
53932;BME280;39844;52.496;13.482;2023-12-20T12:03:04;100355.88;;;6.75;97.30
53932;BME280;39844;52.496;13.482;2023-12-20T12:05:30;100340.22;;;6.75;97.31
53932;BME280;39844;52.496;13.482;2023-12-20T12:07:56;100341.13;;;6.75;97.51
53932;BME280;39844;52.496;13.482;2023-12-20T12:10:21;100330.69;;;6.77;97.60
53932;BME280;39844;52.496;13.482;2023-12-20T12:12:47;100331.56;;;6.80;97.95
53932;BME280;39844;52.496;13.482;2023-12-20T12:15:12;100314.19;;;6.81;97.06
53932;BME280;39844;52.496;13.482;2023-12-20T12:17:38;100322.88;;;6.83;97.20
53932;BME280;39844;52.496;13.482;2023-12-20T12:20:04;100315.91;;;6.82;96.16
53932;BME280;39844;52.496;13.482;2023-12-20T12:22:30;100305.50;;;6.85;96.24
53932;BME280;39844;52.496;13.482;2023-12-20T12:24:59;100295.94;;;6.85;95.82
53932;BME280;39844;52.496;13.482;2023-12-20T12:27:24;100287.25;;;6.89;95.68
53932;BME280;39844;52.496;13.482;2023-12-20T12:30:04;100294.22;;;6.90;95.62
53932;BME280;39844;52.496;13.482;2023-12-20T12:32:29;100288.13;;;6.90;95.57
53932;BME280;39844;52.496;13.482;2023-12-20T12:34:55;100282.91;;;6.87;96.01
53932;BME280;39844;52.496;13.482;2023-12-20T12:37:20;100285.50;;;6.84;96.52